CheckWX is a tool to help pilots better visualize weather data.  It is not intended as a substitute for an official pre-flight weather briefing.

13:59:21 UTC

LLHZ TAF
Herzliya Airport
Herzliya, Israel
TAF LLHZ 071108Z 0712/0812 32008KT 9999 SCT040 BECMG 0715/0717 VRB04KT SCT035 TEMPO 0717/0804 18008KT -RA BKN030 BECMG 0804/0806 22008KT PROB40 0806/0812 25014KT 7000 RA FEW025TCU BKN030 TX19/0712Z TN13/0804Z

Dec-7@
12:00 UTC

Dec-7 @ 12:00 UTC

Dec-7@
15:00 UTC

Dec-7 @ 15:00 UTC

TAF LLHZ 071108Z 0712/0812 32008KT 9999 SCT040
Wind
  • 320° at 8 KTS
Cloud Levels
  • Scattered at 4,000' AGL

Dec-7@
15:00 UTC

Dec-7 @ 15:00 UTC

Dec-8@
04:00 UTC

Dec-8 @ 04:00 UTC

BECMG 0715/0717 VRB04KT SCT035

Becoming

Becoming Conditions expected by Sat, Dec 7, 2019 @ 17:00 UTC

Wind
  • Variable at 4 KTS
Cloud Levels
  • Scattered at 3,500' AGL

Dec-7@
17:00 UTC

Dec-7 @ 17:00 UTC

Dec-8@
04:00 UTC

Dec-8 @ 04:00 UTC

TEMPO 0717/0804 18008KT -RA BKN030

Temporary

Temporary Changes expected for less than half the time period

Wind
  • 180° at 8 KTS
Conditions
Light Rain
Cloud Levels
  • Broken at 3,000' AGL

Dec-8@
04:00 UTC

Dec-8 @ 04:00 UTC

Dec-8@
12:00 UTC

Dec-8 @ 12:00 UTC

BECMG 0804/0806 22008KT

Becoming

Becoming Conditions expected by Sun, Dec 8, 2019 @ 06:00 UTC

Wind
  • 220° at 8 KTS
Cloud Levels
  • Scattered at 3,500' AGL

Dec-8@
06:00 UTC

Dec-8 @ 06:00 UTC

Dec-8@
12:00 UTC

Dec-8 @ 12:00 UTC

PROB40 0806/0812 25014KT 7000 RA FEW025TCU BKN030 TX19/0712Z TN13/0804Z

Probable - 40% Likelihood

Probable - 40% Likelihood during this time.

Wind
  • 250° at 14 KTS
Conditions
Rain
Cloud Levels
  • Few at 2,500' AGL
  • Broken at 3,000' AGL